MSC Maeva — H9TF — position and weather

sailwx.info

Track history (hours):
 
Tides and Currents Weather Stations Pressure Air Temp Water Temp Dewpoint Dewpoint Depression Visibility Wind Speed Wind Dir Waves Ship Positions

MSC Maeva

Last reported at 2014-Sep-02 13:05 UTC. Time now 2014-Sep-02 21:35 UTC.
Position N 36°54' W 075°18'.

Type: Ship (hazmat cat A). MMSI: 371851000.

Date/timePositionNaut miles runAvg speedWind from/ knotsBaromVisibWave heightAir tempDewpointWater temp
2014-Sep-02 13:05N 36°54' W 075°18'4 7.4
2014-Sep-02 12:32N 36°57' W 075°15'13 5.8
2014-Sep-02 10:17N 37°03' W 075°00'8 0.3
2014-Sep-01 03:03N 36°58' W 075°09'6 1.7
2014-Aug-31 23:27N 37°04' W 075°06'8 9.2
2014-Aug-31 22:31N 37°12' W 075°04'28 6.6
2014-Aug-31 18:14N 37°37' W 074°45'69 5.8
2014-Aug-31 06:22N 38°33' W 073°55'5 6.3
2014-Aug-31 05:33N 38°37' W 073°51'7 6.6
2014-Aug-31 04:30N 38°44' W 073°48'16 6.5
2014-Aug-31 02:04N 38°59' W 073°42'4 6.4
2014-Aug-31 01:29N 39°02' W 073°39'6 6.4
2014-Aug-31 00:31N 39°08' W 073°38'45 6.4
2014-Aug-30 17:25N 39°52' W 073°20'7 6.3
2014-Aug-30 16:14N 39°59' W 073°19'5 6.7
2014-Aug-30 15:29N 40°03' W 073°23'16 8.1
2014-Aug-30 13:30N 40°15' W 073°36'17 8.0
2014-Aug-30 11:25N 40°27' W 073°51'1214.3
2014-Aug-30 10:33N 40°36' W 074°03'6 5.7
2014-Aug-30 09:33N 40°39' W 074°09'2 2.1
2014-Aug-30 08:33N 40°41' W 074°09'0 0.0
2014-Aug-30 07:33N 40°41' W 074°09'0 0.0
2014-Aug-30 06:33N 40°41' W 074°09'0 0.0
2014-Aug-30 05:33N 40°41' W 074°09'0 0.0
2014-Aug-30 02:30N 40°41' W 074°09'0 0.0
2014-Aug-30 00:32N 40°41' W 074°09'0 0.0
2014-Aug-29 22:33N 40°41' W 074°09'0 0.0
2014-Aug-29 21:32N 40°41' W 074°09'0 0.0
2014-Aug-29 20:33N 40°41' W 074°09'0 0.0
2014-Aug-29 19:34N 40°41' W 074°09'0 0.0
2014-Aug-29 18:32N 40°41' W 074°09'0 0.0
2014-Aug-29 17:33N 40°41' W 074°09'0 0.0
2014-Aug-29 16:34N 40°41' W 074°09'0 0.0
2014-Aug-29 15:17N 40°41' W 074°09'0 0.0
2014-Aug-29 14:33N 40°41' W 074°09'0 0.0
2014-Aug-29 13:33N 40°41' W 074°09'0 0.0
2014-Aug-29 12:33N 40°41' W 074°09'0 0.0
2014-Aug-29 11:33N 40°41' W 074°09'0 0.0
2014-Aug-29 10:33N 40°41' W 074°09'0 0.0
2014-Aug-29 09:33N 40°41' W 074°09'0 0.0
2014-Aug-29 08:33N 40°41' W 074°09'0 0.0
2014-Aug-29 07:34N 40°41' W 074°09'0 0.0
2014-Aug-29 06:33N 40°41' W 074°09'0 0.0
2014-Aug-29 05:33N 40°41' W 074°09'0 0.0
2014-Aug-29 04:33N 40°41' W 074°09'0 0.0
2014-Aug-29 03:33N 40°41' W 074°09'0 0.0
2014-Aug-29 02:34N 40°41' W 074°09'0 0.0
2014-Aug-29 01:34N 40°41' W 074°09'0 0.0
2014-Aug-29 00:33N 40°41' W 074°09'0 0.0
2014-Aug-28 23:33N 40°41' W 074°09'0 0.0
2014-Aug-28 22:33N 40°41' W 074°09'0 0.0
2014-Aug-28 21:34N 40°41' W 074°09'1 1.4
2014-Aug-28 20:33N 40°40' W 074°09'4 4.3
2014-Aug-28 19:34N 40°38' W 074°03'9 9.0
2014-Aug-28 18:33N 40°30' W 073°57'1410.1
2014-Aug-28 17:10N 40°27' W 073°39'7 9.5
2014-Aug-28 16:29N 40°28' W 073°31'1715.7
2014-Aug-28 15:23N 40°30' W 073°08'1416.7
2014-Aug-28 14:33N 40°30' W 072°50'1717.0
2014-Aug-28 13:33N 40°31' W 072°28'1717.3
2014-Aug-28 12:34N 40°31' W 072°05'1717.5
2014-Aug-28 11:34N 40°32' W 071°42'1717.0
2014-Aug-28 10:34N 40°32' W 071°20'1717.2
2014-Aug-28 09:34N 40°33' W 070°57'1717.1
2014-Aug-28 08:33N 40°33' W 070°35'1717.1
2014-Aug-28 07:34N 40°33' W 070°12'1717.0
2014-Aug-28 06:34N 40°34' W 069°50'1717.1
2014-Aug-28 05:34N 40°34' W 069°28'1716.9
2014-Aug-28 04:34N 40°35' W 069°05'1716.8
2014-Aug-28 03:34N 40°35' W 068°43'1817.5
2014-Aug-28 02:33N 40°34' W 068°20'1817.7
2014-Aug-28 01:33N 40°34' W 067°57'1817.8
2014-Aug-28 00:34N 40°34' W 067°33'1817.5
2014-Aug-27 23:33N 40°33' W 067°10'22417.3
2014-Aug-27 10:33N 40°29' W 062°15'  
2014-Aug-24 01:33N 39°52' W 029°12'1919.0
2014-Aug-24 00:33N 39°47' W 028°48'1919.1
2014-Aug-23 23:33N 39°43' W 028°23'2019.2
2014-Aug-23 22:31N 39°38' W 027°58'1919.2
2014-Aug-23 21:33N 39°34' W 027°35'2119.5
2014-Aug-23 20:28N 39°30' W 027°08'  
Track history (hours):
 
Tides and Currents Weather Stations Pressure Air Temp Water Temp Dewpoint Dewpoint Depression Visibility Wind Speed Wind Dir Waves Ship Positions

MSC Maeva

Last reported at 2014-Sep-02 13:05 UTC. Time now 2014-Sep-02 21:35 UTC.
Position N 36°54' W 075°18'.

Type: Ship (hazmat cat A). MMSI: 371851000.

Date/timePositionNaut miles runAvg speedWind from/ knotsBaromVisibWave heightAir tempDewpointWater temp
2014-Sep-02 13:05N 36°54' W 075°18'4 7.4
2014-Sep-02 12:32N 36°57' W 075°15'13 5.8
2014-Sep-02 10:17N 37°03' W 075°00'8 0.3
2014-Sep-01 03:03N 36°58' W 075°09'6 1.7
2014-Aug-31 23:27N 37°04' W 075°06'8 9.2
2014-Aug-31 22:31N 37°12' W 075°04'28 6.6
2014-Aug-31 18:14N 37°37' W 074°45'69 5.8
2014-Aug-31 06:22N 38°33' W 073°55'5 6.3
2014-Aug-31 05:33N 38°37' W 073°51'7 6.6
2014-Aug-31 04:30N 38°44' W 073°48'16 6.5
2014-Aug-31 02:04N 38°59' W 073°42'4 6.4
2014-Aug-31 01:29N 39°02' W 073°39'6 6.4
2014-Aug-31 00:31N 39°08' W 073°38'45 6.4
2014-Aug-30 17:25N 39°52' W 073°20'7 6.3
2014-Aug-30 16:14N 39°59' W 073°19'5 6.7
2014-Aug-30 15:29N 40°03' W 073°23'16 8.1
2014-Aug-30 13:30N 40°15' W 073°36'17 8.0
2014-Aug-30 11:25N 40°27' W 073°51'1214.3
2014-Aug-30 10:33N 40°36' W 074°03'6 5.7
2014-Aug-30 09:33N 40°39' W 074°09'2 2.1
2014-Aug-30 08:33N 40°41' W 074°09'0 0.0
2014-Aug-30 07:33N 40°41' W 074°09'0 0.0
2014-Aug-30 06:33N 40°41' W 074°09'0 0.0
2014-Aug-30 05:33N 40°41' W 074°09'0 0.0
2014-Aug-30 02:30N 40°41' W 074°09'0 0.0
2014-Aug-30 00:32N 40°41' W 074°09'0 0.0
2014-Aug-29 22:33N 40°41' W 074°09'0 0.0
2014-Aug-29 21:32N 40°41' W 074°09'0 0.0
2014-Aug-29 20:33N 40°41' W 074°09'0 0.0
2014-Aug-29 19:34N 40°41' W 074°09'0 0.0
2014-Aug-29 18:32N 40°41' W 074°09'0 0.0
2014-Aug-29 17:33N 40°41' W 074°09'0 0.0
2014-Aug-29 16:34N 40°41' W 074°09'0 0.0
2014-Aug-29 15:17N 40°41' W 074°09'0 0.0
2014-Aug-29 14:33N 40°41' W 074°09'0 0.0
2014-Aug-29 13:33N 40°41' W 074°09'0 0.0
2014-Aug-29 12:33N 40°41' W 074°09'0 0.0
2014-Aug-29 11:33N 40°41' W 074°09'0 0.0
2014-Aug-29 10:33N 40°41' W 074°09'0 0.0
2014-Aug-29 09:33N 40°41' W 074°09'0 0.0
2014-Aug-29 08:33N 40°41' W 074°09'0 0.0
2014-Aug-29 07:34N 40°41' W 074°09'0 0.0
2014-Aug-29 06:33N 40°41' W 074°09'0 0.0
2014-Aug-29 05:33N 40°41' W 074°09'0 0.0
2014-Aug-29 04:33N 40°41' W 074°09'0 0.0
2014-Aug-29 03:33N 40°41' W 074°09'0 0.0
2014-Aug-29 02:34N 40°41' W 074°09'0 0.0
2014-Aug-29 01:34N 40°41' W 074°09'0 0.0
2014-Aug-29 00:33N 40°41' W 074°09'0 0.0
2014-Aug-28 23:33N 40°41' W 074°09'0 0.0
2014-Aug-28 22:33N 40°41' W 074°09'0 0.0
2014-Aug-28 21:34N 40°41' W 074°09'1 1.4
2014-Aug-28 20:33N 40°40' W 074°09'4 4.3
2014-Aug-28 19:34N 40°38' W 074°03'9 9.0
2014-Aug-28 18:33N 40°30' W 073°57'1410.1
2014-Aug-28 17:10N 40°27' W 073°39'7 9.5
2014-Aug-28 16:29N 40°28' W 073°31'1715.7
2014-Aug-28 15:23N 40°30' W 073°08'1416.7
2014-Aug-28 14:33N 40°30' W 072°50'1717.0
2014-Aug-28 13:33N 40°31' W 072°28'1717.3
2014-Aug-28 12:34N 40°31' W 072°05'1717.5
2014-Aug-28 11:34N 40°32' W 071°42'1717.0
2014-Aug-28 10:34N 40°32' W 071°20'1717.2
2014-Aug-28 09:34N 40°33' W 070°57'1717.1
2014-Aug-28 08:33N 40°33' W 070°35'1717.1
2014-Aug-28 07:34N 40°33' W 070°12'1717.0
2014-Aug-28 06:34N 40°34' W 069°50'1717.1
2014-Aug-28 05:34N 40°34' W 069°28'1716.9
2014-Aug-28 04:34N 40°35' W 069°05'1716.8
2014-Aug-28 03:34N 40°35' W 068°43'1817.5
2014-Aug-28 02:33N 40°34' W 068°20'1817.7
2014-Aug-28 01:33N 40°34' W 067°57'1817.8
2014-Aug-28 00:34N 40°34' W 067°33'1817.5
2014-Aug-27 23:33N 40°33' W 067°10'22417.3
2014-Aug-27 10:33N 40°29' W 062°15'  
2014-Aug-24 01:33N 39°52' W 029°12'1919.0
2014-Aug-24 00:33N 39°47' W 028°48'1919.1
2014-Aug-23 23:33N 39°43' W 028°23'2019.2
2014-Aug-23 22:31N 39°38' W 027°58'1919.2
2014-Aug-23 21:33N 39°34' W 027°35'2119.5
2014-Aug-23 20:28N 39°30' W 027°08'  

Dump ship's entire track history